Time;durP1;ratioP1;P1;durP2;ratioP2;P2;SDS_P1;SDS_P2;PMS_P1;PMS_P2;Temp;Humidity;BMP_temperature;BMP_pressure;BME280_temperature;BME280_humidity;BME280_pressure;Samples;Min_cycle;Max_cycle;Signal;HPM_P1;HPM_P2
2022/01/02 00:00:02;;;;;;;10.77;5.63;;;11.30;99.90;;;;;;5044234;28;20082;-76
2022/01/02 00:02:32;;;;;;;10.07;5.45;;;11.30;99.90;;;;;;5047718;28;20040;-75
2022/01/02 00:05:08;;;;;;;8.85;5.63;;;11.30;99.90;;;;;;5040702;28;20041;-75
2022/01/02 00:07:53;;;;;;;9.90;6.40;;;11.30;99.90;;;;;;5020979;28;20047;-75
2022/01/02 00:10:21;;;;;;;8.38;5.35;;;11.30;99.90;;;;;;5032229;28;20053;-74
2022/01/02 00:12:56;;;;;;;8.70;6.55;;;11.30;99.90;;;;;;5039039;28;20040;-75
2022/01/02 00:15:24;;;;;;;8.75;5.85;;;11.30;99.90;;;;;;5042206;28;20572;-76
2022/01/02 00:17:51;;;;;;;13.23;6.20;;;11.30;99.90;;;;;;5041479;28;20479;-77
2022/01/02 00:20:32;;;;;;;8.55;6.10;;;11.30;99.90;;;;;;5045268;28;20083;-77
2022/01/02 00:23:05;;;;;;;10.20;6.50;;;11.30;99.90;;;;;;5041850;28;20427;-76
2022/01/02 00:25:35;;;;;;;11.45;6.30;;;11.30;99.90;;;;;;5068326;28;20471;-76
2022/01/02 00:28:00;;;;;;;10.13;6.25;;;11.20;99.90;;;;;;5041495;28;20052;-76
2022/01/02 00:30:26;;;;;;;8.63;6.32;;;11.30;99.90;;;;;;5066980;28;20039;-76
2022/01/02 00:32:52;;;;;;;11.23;6.00;;;11.20;99.90;;;;;;5044371;28;20131;-77
2022/01/02 00:35:18;;;;;;;13.45;7.25;;;11.20;99.90;;;;;;5026507;23;20281;-76
2022/01/02 00:37:44;;;;;;;9.98;6.70;;;11.20;99.90;;;;;;4995281;28;20050;-76
2022/01/02 00:40:10;;;;;;;10.52;6.60;;;11.20;99.90;;;;;;5026461;28;20406;-76
2022/01/02 00:42:41;;;;;;;9.00;6.03;;;11.20;99.90;;;;;;4988893;28;20049;-76
2022/01/02 00:45:25;;;;;;;11.05;7.55;;;11.20;99.90;;;;;;4995413;28;20041;-76
2022/01/02 00:48:04;;;;;;;15.00;6.72;;;11.20;99.90;;;;;;4994727;28;20087;-76
2022/01/02 00:50:36;;;;;;;12.30;6.47;;;11.20;99.90;;;;;;5021178;28;20057;-76
2022/01/02 00:53:02;;;;;;;12.25;6.03;;;11.10;99.90;;;;;;4995057;28;20038;-76
2022/01/02 00:55:34;;;;;;;9.80;6.40;;;11.20;99.90;;;;;;4995774;28;20425;-76
2022/01/02 00:58:02;;;;;;;12.73;6.63;;;11.20;99.90;;;;;;4994304;28;20045;-77
2022/01/02 01:00:29;;;;;;;8.55;6.22;;;11.20;99.90;;;;;;4995127;28;20042;-76
2022/01/02 01:02:57;;;;;;;11.55;7.15;;;11.20;99.90;;;;;;4995188;28;20177;-76
2022/01/02 01:05:35;;;;;;;11.65;6.97;;;11.10;99.90;;;;;;4993435;28;20080;-76
2022/01/02 01:08:04;;;;;;;11.98;6.60;;;11.20;99.90;;;;;;5027896;28;20073;-76
2022/01/02 01:10:32;;;;;;;14.07;7.28;;;11.20;99.90;;;;;;4994425;28;20042;-76
2022/01/02 01:13:01;;;;;;;10.70;7.13;;;11.20;99.90;;;;;;4995163;28;20038;-76
2022/01/02 01:15:28;;;;;;;10.00;6.22;;;11.20;99.90;;;;;;4993692;28;20038;-76
2022/01/02 01:17:56;;;;;;;11.02;7.10;;;11.20;99.90;;;;;;4994714;28;20057;-76
2022/01/02 01:20:23;;;;;;;13.75;6.78;;;11.10;99.90;;;;;;5010610;28;20042;-76
2022/01/02 01:22:49;;;;;;;11.32;7.72;;;11.20;99.90;;;;;;5018050;28;20045;-76
2022/01/02 01:25:17;;;;;;;12.52;6.43;;;11.20;99.90;;;;;;5000519;28;20042;-75
2022/01/02 01:27:52;;;;;;;12.05;7.15;;;11.30;99.90;;;;;;4974700;28;20050;-76
2022/01/02 01:30:20;;;;;;;12.52;6.53;;;11.30;99.90;;;;;;5009659;28;20057;-76
2022/01/02 01:32:46;;;;;;;14.60;7.85;;;11.40;99.90;;;;;;4994714;28;20041;-76
2022/01/02 01:35:13;;;;;;;16.50;8.80;;;11.30;99.90;;;;;;4994666;28;20073;-76
2022/01/02 01:37:39;;;;;;;11.90;6.93;;;11.30;99.90;;;;;;5001817;28;20466;-75
2022/01/02 01:40:07;;;;;;;10.05;7.32;;;11.30;99.90;;;;;;4992666;28;20069;-75
2022/01/02 01:42:37;;;;;;;14.43;8.02;;;11.30;99.90;;;;;;5019767;28;20105;-75
2022/01/02 01:47:44;;;;;;;13.18;7.63;;;11.30;99.90;;;;;;5026883;28;20049;-74
2022/01/02 01:50:10;;;;;;;9.43;6.60;;;11.30;99.90;;;;;;4988413;28;20109;-74
2022/01/02 01:52:35;;;;;;;10.95;7.13;;;11.40;99.90;;;;;;4993509;28;20121;-75
2022/01/02 01:55:01;;;;;;;16.00;8.30;;;11.40;99.90;;;;;;4991397;28;20466;-75
2022/01/02 01:57:26;;;;;;;14.60;8.15;;;11.40;99.90;;;;;;5024249;28;20173;-75
2022/01/02 01:59:52;;;;;;;14.40;8.02;;;11.30;99.90;;;;;;4993837;28;20057;-75
2022/01/02 02:02:18;;;;;;;10.95;7.00;;;11.30;99.90;;;;;;4993489;28;20037;-75
2022/01/02 02:04:43;;;;;;;12.18;8.20;;;11.40;99.90;;;;;;4998940;28;20049;-75
2022/01/02 02:07:09;;;;;;;13.45;8.18;;;11.30;99.90;;;;;;4988894;28;20703;-75
2022/01/02 02:09:59;;;;;;;14.38;8.15;;;11.20;99.90;;;;;;4991251;28;20495;-75
2022/01/02 02:12:25;;;;;;;13.23;7.60;;;11.20;99.90;;;;;;4992985;28;20120;-75
2022/01/02 02:14:51;;;;;;;12.55;7.47;;;11.30;99.90;;;;;;4985084;28;20049;-75
2022/01/02 02:17:16;;;;;;;11.57;8.50;;;11.20;99.90;;;;;;4992765;28;20042;-75
2022/01/02 02:19:42;;;;;;;15.52;8.65;;;11.20;99.90;;;;;;4992869;28;20031;-75
2022/01/02 02:22:08;;;;;;;14.10;8.55;;;11.20;99.90;;;;;;4987407;28;20046;-75
2022/01/02 02:24:34;;;;;;;13.85;7.90;;;11.20;99.90;;;;;;4981235;28;20129;-75
2022/01/02 02:26:59;;;;;;;12.10;7.80;;;11.30;99.90;;;;;;5015645;28;20049;-75
2022/01/02 02:29:25;;;;;;;15.27;9.32;;;11.20;99.90;;;;;;5017711;28;20065;-75
2022/01/02 02:31:54;;;;;;;13.70;7.80;;;11.30;99.90;;;;;;5009035;28;20128;-75
2022/01/02 02:34:20;;;;;;;12.13;8.45;;;11.20;99.90;;;;;;5010500;28;20464;-75
2022/01/02 02:36:45;;;;;;;14.75;8.38;;;11.20;99.90;;;;;;5002646;28;20070;-75
2022/01/02 02:39:11;;;;;;;16.67;8.25;;;11.20;99.90;;;;;;4993625;28;20530;-75
2022/01/02 02:41:39;;;;;;;13.90;7.95;;;11.20;99.90;;;;;;4995977;28;20096;-74
2022/01/02 02:44:16;;;;;;;16.08;8.70;;;11.20;99.90;;;;;;4984149;28;20635;-75
2022/01/02 02:49:25;;;;;;;11.52;7.10;;;11.20;99.90;;;;;;5008721;28;20082;-75
2022/01/02 02:51:56;;;;;;;14.13;7.88;;;11.20;99.90;;;;;;4989061;28;20471;-76
2022/01/02 02:54:25;;;;;;;14.27;8.02;;;11.20;99.90;;;;;;4990648;28;20046;-75
2022/01/02 02:56:56;;;;;;;15.07;7.80;;;11.20;99.90;;;;;;4992022;28;20041;-75
2022/01/02 02:59:28;;;;;;;12.05;8.05;;;11.20;99.90;;;;;;4992636;28;20038;-75
2022/01/02 03:01:54;;;;;;;14.10;8.02;;;11.20;99.90;;;;;;4984489;28;20029;-75
2022/01/02 03:04:21;;;;;;;17.88;8.75;;;11.20;99.90;;;;;;4991140;28;20042;-75
2022/01/02 03:06:47;;;;;;;14.93;8.27;;;11.20;99.90;;;;;;4992418;28;20088;-75
2022/01/02 03:09:13;;;;;;;16.83;8.75;;;11.20;99.90;;;;;;4992617;28;20121;-75
2022/01/02 03:11:41;;;;;;;16.23;8.77;;;11.20;99.90;;;;;;4990379;28;20145;-75
2022/01/02 03:14:08;;;;;;;14.77;7.97;;;11.20;99.90;;;;;;4975306;28;20038;-75
2022/01/02 03:16:34;;;;;;;20.58;8.75;;;11.20;99.90;;;;;;4981151;28;20089;-75
2022/01/02 03:18:59;;;;;;;12.63;7.40;;;11.20;99.90;;;;;;4985023;28;20034;-75
2022/01/02 03:21:25;;;;;;;15.70;8.35;;;11.20;99.90;;;;;;4996402;28;20103;-75
2022/01/02 03:23:51;;;;;;;17.10;8.48;;;11.20;99.90;;;;;;4983594;28;20104;-75
2022/01/02 03:26:17;;;;;;;14.95;8.25;;;11.20;99.90;;;;;;5000562;28;20042;-75
2022/01/02 03:28:43;;;;;;;17.77;9.10;;;11.10;99.90;;;;;;5008446;28;20045;-75
2022/01/02 03:31:08;;;;;;;17.15;8.77;;;11.20;99.90;;;;;;4985185;28;20061;-75
2022/01/02 03:33:34;;;;;;;19.52;9.15;;;11.20;99.90;;;;;;4975424;28;20036;-75
2022/01/02 03:36:00;;;;;;;16.73;8.23;;;11.10;99.90;;;;;;4989276;28;20107;-75
2022/01/02 03:38:27;;;;;;;15.48;9.40;;;11.10;99.90;;;;;;4985879;28;20045;-75
2022/01/02 03:40:53;;;;;;;13.40;8.50;;;11.20;99.90;;;;;;4991683;28;20064;-75
2022/01/02 03:43:18;;;;;;;15.68;8.57;;;11.10;99.90;;;;;;5017371;28;20472;-75
2022/01/02 03:45:44;;;;;;;11.23;6.82;;;11.10;99.90;;;;;;4991640;28;20488;-75
2022/01/02 03:48:10;;;;;;;18.73;8.88;;;11.20;99.90;;;;;;5008302;28;20117;-75
2022/01/02 03:50:36;;;;;;;16.52;8.10;;;11.10;99.90;;;;;;4986392;28;20077;-75
2022/01/02 03:53:02;;;;;;;13.80;7.50;;;11.10;99.90;;;;;;5023311;28;20042;-75
2022/01/02 03:55:27;;;;;;;15.80;8.80;;;11.20;99.90;;;;;;5015097;28;20068;-76
2022/01/02 03:57:53;;;;;;;15.20;8.25;;;11.20;99.90;;;;;;4990855;28;20045;-76
2022/01/02 04:00:21;;;;;;;19.15;8.50;;;11.20;99.90;;;;;;4988727;28;20037;-75
2022/01/02 04:02:46;;;;;;;11.93;7.47;;;11.20;99.90;;;;;;4986957;28;20025;-75
2022/01/02 04:05:14;;;;;;;13.18;7.50;;;11.30;99.90;;;;;;4987411;28;20079;-75
2022/01/02 04:07:40;;;;;;;14.15;7.18;;;11.30;99.90;;;;;;4986995;28;20055;-75
2022/01/02 04:10:08;;;;;;;16.83;7.95;;;11.30;99.90;;;;;;4982183;28;20046;-75
2022/01/02 04:12:35;;;;;;;15.75;7.65;;;11.30;99.90;;;;;;5012221;28;20695;-75
2022/01/02 04:15:03;;;;;;;14.88;7.32;;;11.30;99.90;;;;;;4990908;28;20046;-75
2022/01/02 04:17:28;;;;;;;12.30;7.38;;;11.30;99.90;;;;;;4982535;28;20038;-75
2022/01/02 04:19:54;;;;;;;12.63;7.40;;;11.30;99.90;;;;;;4989485;28;20038;-75
2022/01/02 04:22:20;;;;;;;17.52;8.48;;;11.30;99.90;;;;;;4981710;28;20152;-75
2022/01/02 04:24:45;;;;;;;13.32;7.03;;;11.30;99.90;;;;;;4989143;28;20522;-75
2022/01/02 04:27:11;;;;;;;13.32;7.30;;;11.30;99.90;;;;;;5007507;28;20045;-75
2022/01/02 04:29:37;;;;;;;16.17;7.50;;;11.30;99.90;;;;;;4985868;28;20038;-75
2022/01/02 04:32:02;;;;;;;15.15;7.03;;;11.30;99.90;;;;;;4996334;28;20116;-76
2022/01/02 04:34:28;;;;;;;14.95;7.65;;;11.30;99.90;;;;;;4991179;28;20041;-75
2022/01/02 04:36:54;;;;;;;17.08;7.35;;;11.30;99.90;;;;;;4990913;28;20092;-76
2022/01/02 04:39:20;;;;;;;13.15;6.90;;;11.30;99.90;;;;;;4998104;28;20565;-75
2022/01/02 04:41:45;;;;;;;17.60;6.95;;;11.30;99.90;;;;;;4985118;28;20038;-75
2022/01/02 04:44:11;;;;;;;13.52;7.50;;;11.40;99.90;;;;;;4990893;28;20121;-75
2022/01/02 04:46:36;;;;;;;17.08;6.90;;;11.30;99.90;;;;;;5001984;28;20065;-75
2022/01/02 04:49:02;;;;;;;11.60;6.43;;;11.30;99.90;;;;;;4990758;28;20050;-75
2022/01/02 04:51:28;;;;;;;14.50;6.25;;;11.30;99.90;;;;;;4980342;28;20041;-75
2022/01/02 04:53:53;;;;;;;15.38;6.85;;;11.40;99.90;;;;;;4985069;28;20038;-75
2022/01/02 04:56:19;;;;;;;12.27;7.07;;;11.40;99.90;;;;;;4982077;28;20054;-76
2022/01/02 04:58:44;;;;;;;9.90;6.07;;;11.40;99.90;;;;;;4980681;28;21744;-75
2022/01/02 05:01:14;;;;;;;16.92;6.68;;;11.30;99.90;;;;;;4987931;28;20029;-75
2022/01/02 05:03:41;;;;;;;14.00;6.22;;;11.30;99.90;;;;;;4980702;28;20120;-76
2022/01/02 05:06:07;;;;;;;15.32;7.10;;;11.30;99.90;;;;;;5001768;28;20068;-76
2022/01/02 05:08:33;;;;;;;13.85;6.10;;;11.30;99.90;;;;;;4998104;28;20167;-75
2022/01/02 05:10:59;;;;;;;13.90;6.45;;;11.40;99.90;;;;;;4993287;28;20129;-75
2022/01/02 05:13:25;;;;;;;11.45;5.47;;;11.40;99.90;;;;;;4977420;28;20042;-75
2022/01/02 05:15:50;;;;;;;9.93;5.47;;;11.40;99.90;;;;;;4977741;28;20037;-76
2022/01/02 05:18:16;;;;;;;16.15;5.80;;;11.50;99.90;;;;;;4993394;28;20509;-75
2022/01/02 05:20:46;;;;;;;15.63;6.32;;;11.50;99.90;;;;;;4993804;28;20050;-75
2022/01/02 05:23:14;;;;;;;12.25;6.00;;;11.50;99.90;;;;;;5000130;28;20535;-76
2022/01/02 05:25:40;;;;;;;13.05;5.70;;;11.50;99.90;;;;;;4989626;28;20041;-75
2022/01/02 05:28:05;;;;;;;12.80;6.45;;;11.50;99.90;;;;;;4994808;28;20053;-75
2022/01/02 05:30:31;;;;;;;15.13;6.22;;;11.50;99.90;;;;;;5009198;28;20085;-76
2022/01/02 05:32:56;;;;;;;12.95;6.38;;;11.50;99.90;;;;;;4987411;28;20427;-76
2022/01/02 05:35:22;;;;;;;14.93;6.15;;;11.50;99.90;;;;;;4985031;28;20723;-76
2022/01/02 05:37:48;;;;;;;12.48;5.65;;;11.50;99.90;;;;;;4990953;28;20391;-76
2022/01/02 05:40:14;;;;;;;14.02;5.78;;;11.50;99.90;;;;;;5025114;28;20499;-75
2022/01/02 05:42:39;;;;;;;11.00;5.22;;;11.50;99.90;;;;;;4985152;28;20136;-75
2022/01/02 05:45:05;;;;;;;14.75;5.70;;;11.50;99.90;;;;;;4993918;28;20576;-76
2022/01/02 05:47:30;;;;;;;11.52;5.07;;;11.50;99.90;;;;;;4986473;28;20045;-75
2022/01/02 05:49:56;;;;;;;12.88;5.80;;;11.50;99.90;;;;;;4985205;28;20076;-75
2022/01/02 05:52:21;;;;;;;16.05;5.68;;;11.50;99.90;;;;;;4996808;28;20483;-75
2022/01/02 05:54:47;;;;;;;9.77;4.82;;;11.50;99.90;;;;;;4999449;28;20034;-75
2022/01/02 05:57:12;;;;;;;17.27;5.90;;;11.50;99.90;;;;;;5019326;28;20527;-76
2022/01/02 05:59:39;;;;;;;11.48;4.75;;;11.50;99.90;;;;;;4994687;28;20042;-76
2022/01/02 06:02:05;;;;;;;9.48;5.28;;;11.50;99.90;;;;;;4994739;28;20041;-76
2022/01/02 06:04:30;;;;;;;18.63;6.03;;;11.50;99.90;;;;;;4994048;28;20045;-76
2022/01/02 06:06:56;;;;;;;14.20;5.75;;;11.50;99.90;;;;;;4999855;28;20073;-75
2022/01/02 06:09:22;;;;;;;9.40;4.90;;;11.50;99.90;;;;;;4984516;28;20056;-75
2022/01/02 06:11:47;;;;;;;13.10;5.35;;;11.50;99.90;;;;;;4993233;28;20033;-76
2022/01/02 06:14:13;;;;;;;18.50;5.55;;;11.60;99.90;;;;;;4992108;28;20049;-76
2022/01/02 06:16:38;;;;;;;13.93;5.32;;;11.60;99.90;;;;;;4975617;28;20365;-76
2022/01/02 06:19:04;;;;;;;13.23;5.82;;;11.60;99.90;;;;;;5005864;28;20074;-75
2022/01/02 06:21:29;;;;;;;11.60;5.28;;;11.60;99.90;;;;;;4991546;28;20042;-75
2022/01/02 06:23:55;;;;;;;12.63;4.75;;;11.60;99.90;;;;;;4989814;28;20041;-75
2022/01/02 06:26:20;;;;;;;12.07;4.60;;;11.60;99.90;;;;;;4992014;28;20490;-75
2022/01/02 06:28:46;;;;;;;16.83;6.03;;;11.60;99.90;;;;;;4989178;28;20038;-75
2022/01/02 06:31:11;;;;;;;12.95;5.13;;;11.60;99.90;;;;;;5013673;28;20049;-76
2022/01/02 06:33:37;;;;;;;16.17;4.78;;;11.60;99.90;;;;;;4995717;28;20065;-75
2022/01/02 06:36:03;;;;;;;10.27;4.28;;;11.60;99.90;;;;;;4993942;28;20053;-75
2022/01/02 06:38:29;;;;;;;11.65;4.50;;;11.60;99.90;;;;;;4991774;28;20053;-75
2022/01/02 06:40:54;;;;;;;10.82;4.60;;;11.70;99.90;;;;;;4992150;28;20161;-75
2022/01/02 06:43:20;;;;;;;13.10;4.35;;;11.70;99.90;;;;;;4991001;28;20145;-75
2022/01/02 06:45:46;;;;;;;12.05;4.43;;;11.70;99.90;;;;;;5009346;28;20061;-75
2022/01/02 06:48:12;;;;;;;9.93;4.05;;;11.80;99.90;;;;;;5025302;28;20058;-76
2022/01/02 06:50:39;;;;;;;9.85;4.10;;;11.80;99.90;;;;;;4988376;28;20080;-75
2022/01/02 06:53:05;;;;;;;10.27;3.72;;;11.80;99.90;;;;;;4978767;28;20046;-76
2022/01/02 06:55:31;;;;;;;8.65;3.40;;;11.80;99.90;;;;;;5010230;28;20738;-76
2022/01/02 06:57:56;;;;;;;6.32;3.28;;;11.80;99.90;;;;;;4993795;28;20046;-76
2022/01/02 07:00:22;;;;;;;10.35;4.00;;;11.80;99.90;;;;;;4992946;28;20038;-76
2022/01/02 07:02:48;;;;;;;10.90;3.72;;;11.80;99.90;;;;;;4982814;28;20384;-77
2022/01/02 07:05:13;;;;;;;10.32;3.20;;;11.80;99.90;;;;;;4990841;28;20041;-75
2022/01/02 07:07:43;;;;;;;8.30;3.80;;;11.90;99.90;;;;;;5008644;28;20038;-76
2022/01/02 07:10:13;;;;;;;7.43;3.08;;;11.90;99.90;;;;;;4993043;28;20057;-74
2022/01/02 07:12:39;;;;;;;11.07;3.35;;;11.90;99.90;;;;;;4991218;28;20573;-74
2022/01/02 07:15:06;;;;;;;10.65;3.65;;;11.80;99.90;;;;;;5001313;28;20365;-73
2022/01/02 07:17:32;;;;;;;6.50;3.25;;;11.90;99.90;;;;;;4991224;28;20038;-73
2022/01/02 07:19:58;;;;;;;7.75;3.25;;;11.90;99.90;;;;;;5025353;28;20129;-74
2022/01/02 07:22:23;;;;;;;7.75;3.50;;;11.90;99.90;;;;;;4991610;28;20034;-74
2022/01/02 07:24:51;;;;;;;11.15;3.95;;;11.90;99.90;;;;;;4992102;28;20038;-74
2022/01/02 07:27:20;;;;;;;7.85;3.30;;;11.90;99.90;;;;;;4991721;28;20046;-74
2022/01/02 07:29:47;;;;;;;10.85;3.78;;;11.90;99.90;;;;;;4984978;28;20042;-75
2022/01/02 07:32:14;;;;;;;8.68;3.90;;;11.90;99.90;;;;;;4975596;28;20377;-74
2022/01/02 07:34:39;;;;;;;8.73;3.88;;;11.90;99.90;;;;;;4985046;28;20119;-74
2022/01/02 07:37:05;;;;;;;6.65;3.95;;;11.80;99.90;;;;;;4992200;28;20587;-74
2022/01/02 07:39:31;;;;;;;7.90;3.97;;;11.80;99.90;;;;;;4992801;28;20045;-73
2022/01/02 07:41:56;;;;;;;9.82;3.90;;;11.90;99.90;;;;;;4991485;28;20083;-74
2022/01/02 07:44:22;;;;;;;9.75;4.10;;;11.90;99.90;;;;;;4989156;28;20038;-73
2022/01/02 07:46:47;;;;;;;10.10;3.90;;;11.80;99.90;;;;;;4994384;28;20464;-74
2022/01/02 07:49:13;;;;;;;10.10;4.10;;;11.80;99.90;;;;;;5007072;28;20046;-74
2022/01/02 07:51:39;;;;;;;8.55;3.70;;;11.80;99.90;;;;;;5008649;28;20061;-74
2022/01/02 07:54:04;;;;;;;6.93;3.80;;;11.70;99.90;;;;;;4991786;28;20041;-74
2022/01/02 07:56:30;;;;;;;8.45;3.70;;;11.70;99.90;;;;;;4990853;28;20121;-74
2022/01/02 07:58:58;;;;;;;9.35;4.10;;;11.80;99.90;;;;;;5005324;28;20049;-74
2022/01/02 08:01:23;;;;;;;9.40;3.67;;;11.70;99.90;;;;;;5014429;28;20048;-74
2022/01/02 08:03:49;;;;;;;9.60;4.60;;;11.70;99.90;;;;;;5016776;28;20124;-74
2022/01/02 08:06:14;;;;;;;7.18;4.07;;;11.80;99.90;;;;;;4989026;28;20383;-75
2022/01/02 08:08:40;;;;;;;9.88;4.22;;;11.80;99.90;;;;;;5015903;28;20031;-74
2022/01/02 08:11:06;;;;;;;7.55;3.80;;;11.80;99.90;;;;;;4978082;28;20042;-74
2022/01/02 08:13:31;;;;;;;13.00;4.72;;;11.80;99.90;;;;;;4989722;28;20088;-74
2022/01/02 08:15:57;;;;;;;11.63;4.47;;;11.80;99.90;;;;;;4988243;28;20494;-74
2022/01/02 08:18:22;;;;;;;7.72;4.07;;;11.70;99.90;;;;;;4987040;28;20476;-75
2022/01/02 08:20:48;;;;;;;11.05;4.70;;;11.70;99.90;;;;;;4989644;28;20084;-76
2022/01/02 08:23:15;;;;;;;9.55;4.60;;;11.70;99.90;;;;;;4990383;28;20080;-75
2022/01/02 08:25:40;;;;;;;7.80;4.35;;;11.70;99.90;;;;;;4990587;28;20416;-75
2022/01/02 08:28:06;;;;;;;9.25;4.50;;;11.70;99.90;;;;;;4988010;28;20054;-75
2022/01/02 08:30:32;;;;;;;12.00;4.47;;;11.70;99.90;;;;;;5019895;28;20684;-76
2022/01/02 08:32:58;;;;;;;9.75;5.65;;;11.70;99.90;;;;;;4988224;28;20050;-75
2022/01/02 08:35:24;;;;;;;11.68;5.20;;;11.70;99.90;;;;;;4988248;28;20049;-75
2022/01/02 08:37:49;;;;;;;11.00;4.97;;;11.60;99.90;;;;;;4993391;28;20038;-75
2022/01/02 08:40:15;;;;;;;10.75;4.80;;;11.60;99.90;;;;;;4988026;28;20042;-75
2022/01/02 08:42:40;;;;;;;9.52;4.28;;;11.60;99.90;;;;;;4994719;28;20118;-75
2022/01/02 08:45:07;;;;;;;9.30;4.80;;;11.60;99.90;;;;;;4995235;28;20384;-75
2022/01/02 08:47:32;;;;;;;9.50;4.03;;;11.60;99.90;;;;;;4993957;28;20738;-75
2022/01/02 08:49:58;;;;;;;6.07;3.97;;;11.60;99.90;;;;;;4993471;28;20117;-75
2022/01/02 08:52:24;;;;;;;6.95;4.50;;;11.60;99.90;;;;;;4989468;28;20136;-75
2022/01/02 08:54:50;;;;;;;10.48;4.22;;;11.60;99.90;;;;;;4979247;28;20069;-75
2022/01/02 08:57:16;;;;;;;7.32;4.55;;;11.60;99.90;;;;;;4995032;28;20050;-75
2022/01/02 08:59:42;;;;;;;7.88;4.45;;;11.60;99.90;;;;;;4995211;28;20080;-75
2022/01/02 09:02:08;;;;;;;9.55;4.45;;;11.50;99.90;;;;;;4995064;28;20045;-76
2022/01/02 09:04:34;;;;;;;10.27;4.78;;;11.60;99.90;;;;;;4992797;28;20541;-75
2022/01/02 09:07:01;;;;;;;12.13;4.28;;;11.60;99.90;;;;;;4994683;28;20038;-75
2022/01/02 09:09:27;;;;;;;7.95;4.10;;;11.50;99.90;;;;;;4990886;28;20045;-73
2022/01/02 09:11:52;;;;;;;10.88;5.03;;;11.50;99.90;;;;;;4980458;28;20061;-73
2022/01/02 09:14:18;;;;;;;8.35;4.70;;;11.50;99.90;;;;;;5018905;28;20050;-74
2022/01/02 09:16:46;;;;;;;13.63;4.90;;;11.50;99.90;;;;;;4990596;28;20038;-73
2022/01/02 09:19:13;;;;;;;7.00;3.92;;;11.50;99.90;;;;;;4958377;28;20042;-72
2022/01/02 09:21:39;;;;;;;10.50;4.90;;;11.60;99.90;;;;;;4993359;28;20165;-73
2022/01/02 09:24:06;;;;;;;9.10;5.25;;;11.50;99.90;;;;;;4992947;28;20042;-73
2022/01/02 09:26:32;;;;;;;11.02;6.65;;;11.50;99.90;;;;;;4988689;28;20049;-73
2022/01/02 09:28:58;;;;;;;10.43;5.72;;;11.50;99.90;;;;;;5009893;28;20040;-73
2022/01/02 09:31:24;;;;;;;12.52;7.43;;;11.60;99.90;;;;;;4994927;28;20064;-73
2022/01/02 09:33:50;;;;;;;16.48;13.02;;;11.60;99.90;;;;;;4993484;28;20037;-73
2022/01/02 09:36:16;;;;;;;13.70;7.15;;;11.60;99.90;;;;;;4994689;28;20758;-72
2022/01/02 09:38:42;;;;;;;9.32;5.88;;;11.60;99.90;;;;;;4994862;28;20089;-73
2022/01/02 09:41:08;;;;;;;9.73;4.28;;;11.60;99.90;;;;;;4991412;28;20080;-73
2022/01/02 09:43:34;;;;;;;8.50;4.65;;;11.70;99.90;;;;;;4995067;28;20119;-73
2022/01/02 09:45:59;;;;;;;7.88;4.70;;;11.70;99.90;;;;;;4977000;28;20041;-74
2022/01/02 09:48:27;;;;;;;10.93;4.13;;;11.70;99.90;;;;;;4990479;28;20033;-72
2022/01/02 09:50:53;;;;;;;7.07;4.68;;;11.70;99.90;;;;;;4988217;28;20525;-73
2022/01/02 09:53:18;;;;;;;6.60;4.30;;;11.70;99.90;;;;;;4991020;28;20045;-73
2022/01/02 09:55:44;;;;;;;8.82;4.85;;;11.80;99.90;;;;;;4989810;28;20042;-73
2022/01/02 09:58:11;;;;;;;10.43;4.95;;;11.80;99.90;;;;;;4990548;28;20538;-72
2022/01/02 10:00:44;;;;;;;6.68;4.40;;;11.90;99.90;;;;;;5004934;28;20092;-73
2022/01/02 10:03:11;;;;;;;8.30;4.85;;;12.00;99.90;;;;;;4990361;28;20407;-73
2022/01/02 10:05:49;;;;;;;11.63;4.90;;;11.90;99.90;;;;;;5011861;28;20042;-74
2022/01/02 10:08:24;;;;;;;7.45;4.25;;;11.90;99.90;;;;;;4988378;28;20046;-73
2022/01/02 10:10:59;;;;;;;8.90;4.75;;;11.90;99.90;;;;;;4985709;28;20037;-73
2022/01/02 10:13:51;;;;;;;9.50;5.43;;;11.90;99.90;;;;;;5016209;28;20381;-72
2022/01/02 10:16:22;;;;;;;11.73;4.97;;;11.90;99.90;;;;;;5014829;28;20042;-72
2022/01/02 10:18:49;;;;;;;12.27;4.82;;;12.00;99.90;;;;;;4986368;28;20073;-73
2022/01/02 10:21:29;;;;;;;13.55;8.07;;;12.00;99.90;;;;;;4991449;28;20038;-73
2022/01/02 10:24:15;;;;;;;13.52;7.35;;;12.00;99.90;;;;;;4991564;28;20376;-72
2022/01/02 10:27:02;;;;;;;9.65;5.95;;;12.10;99.90;;;;;;5010239;28;20037;-74
2022/01/02 10:29:37;;;;;;;10.63;5.22;;;12.00;99.90;;;;;;4974217;28;20042;-74
2022/01/02 10:32:22;;;;;;;8.30;5.70;;;12.10;99.90;;;;;;5009246;28;20053;-74
2022/01/02 10:34:48;;;;;;;11.77;7.00;;;12.00;99.90;;;;;;4986373;28;20519;-73
2022/01/02 10:37:26;;;;;;;12.95;5.97;;;12.10;99.90;;;;;;4985274;28;20050;-72
2022/01/02 10:39:52;;;;;;;12.50;5.55;;;12.10;99.90;;;;;;5000167;28;20052;-74
2022/01/02 10:42:19;;;;;;;11.30;5.60;;;12.10;99.90;;;;;;5005829;28;20506;-73
2022/01/02 10:44:46;;;;;;;10.52;5.38;;;12.10;99.90;;;;;;4993179;28;20061;-73
2022/01/02 10:47:21;;;;;;;9.40;6.25;;;12.10;99.90;;;;;;4978346;28;20122;-73
2022/01/02 10:49:54;;;;;;;6.50;4.40;;;12.10;99.90;;;;;;5003151;28;20038;-72
2022/01/02 10:52:32;;;;;;;6.82;5.28;;;12.00;99.90;;;;;;5011329;28;20044;-72
2022/01/02 10:55:07;;;;;;;9.10;5.40;;;12.10;99.90;;;;;;4992263;28;20085;-72
2022/01/02 10:57:33;;;;;;;12.00;6.18;;;12.10;99.90;;;;;;5020317;28;20133;-73
2022/01/02 10:59:59;;;;;;;9.40;6.35;;;12.10;99.90;;;;;;4988185;28;20050;-73
2022/01/02 11:02:27;;;;;;;7.40;5.15;;;12.10;99.90;;;;;;5013933;28;20391;-74
2022/01/02 11:05:00;;;;;;;6.90;5.00;;;12.10;99.90;;;;;;4993583;28;20475;-72
2022/01/02 11:07:27;;;;;;;11.82;4.43;;;12.10;99.90;;;;;;5010769;28;20046;-71
2022/01/02 11:09:55;;;;;;;7.85;4.47;;;12.20;99.90;;;;;;4992181;28;20041;-73
2022/01/02 11:12:22;;;;;;;7.38;4.75;;;12.20;99.90;;;;;;4989805;28;20069;-73
2022/01/02 11:14:49;;;;;;;10.02;5.55;;;12.20;99.90;;;;;;4991708;28;20077;-73
2022/01/02 11:17:16;;;;;;;7.85;4.38;;;12.20;99.90;;;;;;4992874;28;20124;-71
2022/01/02 11:19:41;;;;;;;10.43;5.22;;;12.20;99.90;;;;;;4993116;28;20470;-73
2022/01/02 11:22:21;;;;;;;8.90;4.72;;;12.20;99.90;;;;;;4988970;28;20042;-74
2022/01/02 11:24:58;;;;;;;8.95;5.05;;;12.20;99.90;;;;;;4972475;28;20665;-72
2022/01/02 11:27:33;;;;;;;9.75;5.03;;;12.20;99.90;;;;;;5020727;28;20411;-73
2022/01/02 11:30:28;;;;;;;8.57;5.43;;;12.20;99.90;;;;;;4990095;28;20068;-75
2022/01/02 11:33:08;;;;;;;8.27;5.32;;;12.10;99.90;;;;;;4989839;28;20034;-73
2022/01/02 11:35:35;;;;;;;10.88;5.20;;;12.10;99.90;;;;;;4978607;28;20107;-74
2022/01/02 11:38:03;;;;;;;10.00;5.35;;;12.20;99.90;;;;;;5007524;28;20380;-74
2022/01/02 11:40:52;;;;;;;7.28;5.07;;;12.10;99.90;;;;;;4979748;28;20117;-73
2022/01/02 11:43:35;;;;;;;9.77;5.10;;;12.10;99.90;;;;;;4978579;28;20049;-74
2022/01/02 11:46:27;;;;;;;8.77;4.68;;;12.10;99.90;;;;;;4968167;28;20040;-73
2022/01/02 11:49:08;;;;;;;10.82;5.28;;;12.10;99.90;;;;;;5011916;28;20530;-72
2022/01/02 11:51:51;;;;;;;8.23;5.07;;;12.10;99.90;;;;;;4983992;28;20042;-72
2022/01/02 11:54:48;;;;;;;8.30;4.80;;;12.20;99.90;;;;;;5016491;28;20038;-73
2022/01/02 11:57:14;;;;;;;7.72;4.28;;;12.20;99.90;;;;;;5006995;28;20383;-74
2022/01/02 11:59:40;;;;;;;8.95;3.92;;;12.30;99.90;;;;;;4969233;28;20126;-72
2022/01/02 12:02:18;;;;;;;8.98;4.10;;;12.30;99.90;;;;;;5008338;28;20577;-72
2022/01/02 12:04:59;;;;;;;9.65;3.70;;;12.40;99.90;;;;;;4986516;28;20038;-72
2022/01/02 12:07:37;;;;;;;9.93;3.72;;;12.40;99.90;;;;;;4965884;28;20047;-73
2022/01/02 12:10:19;;;;;;;9.63;4.28;;;12.40;99.90;;;;;;5000608;28;20052;-74
2022/01/02 12:13:00;;;;;;;;;;;12.40;99.90;;;;;;4968209;28;20045;-74
2022/01/02 12:15:34;;;;;;;7.50;2.85;;;12.40;99.90;;;;;;5020220;28;19918;-72
2022/01/02 12:18:26;;;;;;;7.85;3.10;;;12.40;99.90;;;;;;5022117;28;20125;-73
2022/01/02 12:20:52;;;;;;;7.95;2.78;;;12.40;99.90;;;;;;4986558;28;20534;-72
2022/01/02 12:23:30;;;;;;;7.15;3.13;;;12.50;99.90;;;;;;5012907;28;20050;-73
2022/01/02 12:26:15;;;;;;;10.35;2.90;;;12.50;99.90;;;;;;5010748;28;20176;-74
2022/01/02 12:29:10;;;;;;;6.65;2.75;;;12.40;99.90;;;;;;4987001;28;20042;-76
2022/01/02 12:31:38;;;;;;;10.00;3.50;;;12.40;99.90;;;;;;4987690;28;20123;-73
2022/01/02 12:34:18;;;;;;;9.43;3.85;;;12.50;99.90;;;;;;5020811;28;20782;-73
2022/01/02 12:36:46;;;;;;;6.93;2.40;;;12.50;99.90;;;;;;4993711;28;20172;-73
2022/01/02 12:39:25;;;;;;;14.18;3.65;;;12.40;99.90;;;;;;4983380;28;20053;-72
2022/01/02 12:41:51;;;;;;;9.90;2.53;;;12.50;99.90;;;;;;4983190;28;20030;-74
2022/01/02 12:44:25;;;;;;;9.68;2.83;;;12.50;99.90;;;;;;4985220;28;20045;-75
2022/01/02 12:46:53;;;;;;;9.25;3.17;;;12.60;99.90;;;;;;4990789;28;20476;-74
2022/01/02 12:51:49;;;;;;;12.27;2.88;;;12.50;99.90;;;;;;4969015;28;20586;-73
2022/01/02 12:54:17;;;;;;;12.57;2.60;;;12.50;99.90;;;;;;4958378;28;20184;-74